Time;durP1;ratioP1;P1;durP2;ratioP2;P2;SDS_P1;SDS_P2;PMS_P1;PMS_P2;Temp;Humidity;BMP_temperature;BMP_pressure;BME280_temperature;BME280_humidity;BME280_pressure;Samples;Min_cycle;Max_cycle;Signal;HPM_P1;HPM_P2
2023/09/02 00:00:43;;;;;;;1.83;1.00;;;17.50;99.90;;;;;;4878224;29;20085;-69
2023/09/02 00:03:09;;;;;;;2.03;0.80;;;17.40;99.90;;;;;;4877652;29;20480;-69
2023/09/02 00:05:35;;;;;;;1.77;0.98;;;17.20;99.90;;;;;;4878455;29;20041;-69
2023/09/02 00:08:01;;;;;;;1.58;0.70;;;17.20;99.90;;;;;;4876827;29;20463;-69
2023/09/02 00:10:26;;;;;;;1.65;0.65;;;17.10;99.90;;;;;;4877009;29;20108;-70
2023/09/02 00:12:52;;;;;;;1.80;0.95;;;17.00;99.90;;;;;;4876561;29;20470;-69
2023/09/02 00:15:18;;;;;;;2.90;0.85;;;17.00;99.90;;;;;;4877144;29;20489;-70
2023/09/02 00:17:44;;;;;;;1.98;0.68;;;17.10;99.90;;;;;;4877236;29;20036;-70
2023/09/02 00:20:11;;;;;;;1.25;0.60;;;17.10;99.90;;;;;;4878177;29;20606;-70
2023/09/02 00:22:36;;;;;;;8.48;2.75;;;17.20;99.90;;;;;;4877184;29;20040;-69
2023/09/02 00:25:02;;;;;;;5.05;2.28;;;17.20;99.90;;;;;;4878155;29;20036;-69
2023/09/02 00:27:28;;;;;;;3.35;1.58;;;17.20;99.90;;;;;;4876409;29;20065;-70
2023/09/02 00:29:54;;;;;;;2.15;1.00;;;17.20;99.90;;;;;;4877784;29;20037;-69
2023/09/02 00:32:19;;;;;;;3.10;0.93;;;17.20;99.90;;;;;;4877301;29;20573;-69
2023/09/02 00:34:46;;;;;;;6.32;1.20;;;17.20;99.90;;;;;;4878077;29;20035;-69
2023/09/02 00:37:12;;;;;;;3.20;1.20;;;17.10;99.90;;;;;;4877300;29;20497;-69
2023/09/02 00:39:38;;;;;;;1.85;0.80;;;17.10;99.90;;;;;;4876388;29;20040;-69
2023/09/02 00:42:06;;;;;;;2.30;0.98;;;17.10;99.90;;;;;;4874015;29;20037;-69
2023/09/02 00:44:35;;;;;;;1.95;1.00;;;17.10;99.90;;;;;;4876883;29;20033;-69
2023/09/02 00:47:02;;;;;;;0.77;0.57;;;17.00;99.90;;;;;;4876981;29;20045;-69
2023/09/02 00:49:28;;;;;;;1.35;0.80;;;17.00;99.90;;;;;;4876088;29;20092;-69
2023/09/02 00:51:54;;;;;;;2.25;0.85;;;16.90;99.90;;;;;;4876787;29;20503;-70
2023/09/02 00:54:19;;;;;;;0.80;0.55;;;16.90;99.90;;;;;;4877914;29;20033;-69
2023/09/02 00:56:45;;;;;;;2.42;0.98;;;16.90;99.90;;;;;;4876875;29;20476;-69
2023/09/02 00:59:11;;;;;;;2.10;0.82;;;16.60;99.90;;;;;;4876410;29;20037;-70
2023/09/02 01:01:41;;;;;;;4.35;0.88;;;16.50;99.90;;;;;;4876729;29;20043;-70
2023/09/02 01:04:07;;;;;;;2.58;1.10;;;16.40;99.90;;;;;;4874237;29;20060;-69
2023/09/02 01:06:34;;;;;;;2.65;0.98;;;16.50;99.90;;;;;;4871051;29;20064;-70
2023/09/02 01:09:03;;;;;;;2.15;1.00;;;16.50;99.90;;;;;;4877319;29;20021;-69
2023/09/02 01:11:30;;;;;;;1.42;0.80;;;16.30;99.90;;;;;;4859593;29;20508;-69
2023/09/02 01:13:56;;;;;;;4.38;0.90;;;16.30;99.90;;;;;;4876761;29;20060;-69
2023/09/02 01:16:22;;;;;;;1.40;0.75;;;16.40;99.90;;;;;;4876850;29;20067;-69
2023/09/02 01:18:49;;;;;;;1.40;0.73;;;16.40;99.90;;;;;;4861264;29;20037;-70
2023/09/02 01:21:53;;;;;;;4.78;0.70;;;16.40;99.90;;;;;;4858937;29;20141;-69
2023/09/02 01:25:10;;;;;;;1.85;0.82;;;16.50;99.90;;;;;;4855453;29;20120;-68
2023/09/02 01:27:42;;;;;;;2.05;1.10;;;16.50;99.90;;;;;;4857480;29;20046;-68
2023/09/02 01:30:19;;;;;;;1.73;0.80;;;16.30;99.90;;;;;;4876302;29;20025;-69
2023/09/02 01:32:51;;;;;;;1.35;0.90;;;15.90;99.90;;;;;;4874947;29;20513;-68
2023/09/02 01:35:27;;;;;;;2.15;1.02;;;15.70;99.90;;;;;;4876226;29;20371;-68
2023/09/02 01:37:56;;;;;;;2.00;0.88;;;15.80;99.90;;;;;;4875411;29;20029;-69
2023/09/02 01:40:25;;;;;;;1.55;0.85;;;15.70;99.90;;;;;;4877288;29;20041;-69
2023/09/02 01:42:53;;;;;;;1.55;0.80;;;15.80;99.90;;;;;;4857068;29;20071;-69
2023/09/02 01:45:20;;;;;;;5.75;1.25;;;15.80;99.90;;;;;;4857719;29;20100;-69
2023/09/02 01:47:47;;;;;;;1.85;0.68;;;15.90;99.90;;;;;;4841749;29;20040;-69
2023/09/02 01:50:16;;;;;;;3.15;0.93;;;15.90;99.90;;;;;;4876147;29;20112;-69
2023/09/02 01:52:43;;;;;;;1.75;0.80;;;15.90;99.90;;;;;;4878498;29;20524;-69
2023/09/02 01:55:09;;;;;;;2.05;1.00;;;16.00;99.90;;;;;;4879458;29;20084;-69
2023/09/02 01:57:36;;;;;;;2.70;1.05;;;16.00;99.90;;;;;;4878295;29;20037;-69
2023/09/02 02:00:04;;;;;;;1.55;1.00;;;16.00;99.90;;;;;;4879208;29;20029;-68
2023/09/02 02:02:30;;;;;;;1.63;0.95;;;16.10;99.90;;;;;;4879601;29;20041;-68
2023/09/02 02:05:02;;;;;;;2.38;1.10;;;16.10;99.90;;;;;;4860900;29;20113;-68
2023/09/02 02:07:35;;;;;;;3.22;1.45;;;16.10;99.90;;;;;;4858346;29;20034;-68
2023/09/02 02:10:05;;;;;;;3.58;1.60;;;16.20;99.90;;;;;;4879315;29;20025;-68
2023/09/02 02:12:32;;;;;;;3.08;1.35;;;16.20;99.90;;;;;;4880000;29;20470;-68
2023/09/02 02:14:57;;;;;;;2.55;1.00;;;16.20;99.90;;;;;;4879244;29;20111;-68
2023/09/02 02:17:23;;;;;;;3.30;1.08;;;16.30;99.90;;;;;;4879845;29;20144;-68
2023/09/02 02:19:49;;;;;;;1.48;0.85;;;16.20;99.90;;;;;;4880173;29;20499;-68
2023/09/02 02:22:15;;;;;;;1.40;0.85;;;16.00;99.90;;;;;;4878165;29;20089;-68
2023/09/02 02:24:41;;;;;;;2.78;1.30;;;15.90;99.90;;;;;;4880152;29;20041;-68
2023/09/02 02:27:06;;;;;;;2.90;1.13;;;15.80;99.90;;;;;;4879132;29;20033;-68
2023/09/02 02:29:32;;;;;;;3.15;0.80;;;15.70;99.90;;;;;;4879832;29;20025;-68
2023/09/02 02:31:58;;;;;;;1.63;0.95;;;15.60;99.90;;;;;;4879507;29;20053;-68
2023/09/02 02:34:24;;;;;;;1.98;0.85;;;15.60;99.90;;;;;;4880211;29;20529;-68
2023/09/02 02:36:49;;;;;;;2.47;1.15;;;15.60;99.90;;;;;;4878947;29;20051;-68
2023/09/02 02:39:16;;;;;;;1.65;0.77;;;15.70;99.90;;;;;;4879884;29;20037;-69
2023/09/02 02:41:42;;;;;;;1.63;0.80;;;15.70;99.90;;;;;;4879059;29;20536;-69
2023/09/02 02:44:08;;;;;;;5.90;1.55;;;15.80;99.90;;;;;;4879998;29;20033;-69
2023/09/02 02:46:33;;;;;;;2.10;1.02;;;15.90;99.90;;;;;;4879015;29;20087;-69
2023/09/02 02:48:59;;;;;;;3.03;0.85;;;15.90;99.90;;;;;;4878698;29;20033;-69
2023/09/02 02:51:25;;;;;;;2.00;0.90;;;15.90;99.90;;;;;;4878294;29;20036;-69
2023/09/02 02:53:51;;;;;;;2.40;0.88;;;15.90;99.90;;;;;;4879477;29;20029;-69
2023/09/02 02:56:17;;;;;;;2.13;0.90;;;16.00;99.90;;;;;;4878640;29;20028;-69
2023/09/02 02:58:42;;;;;;;1.20;0.80;;;15.80;99.90;;;;;;4879256;29;20032;-69
2023/09/02 03:01:11;;;;;;;1.58;0.65;;;15.90;99.90;;;;;;4876939;29;20116;-69
2023/09/02 03:03:37;;;;;;;3.50;1.20;;;15.90;99.90;;;;;;4860153;29;20104;-69
2023/09/02 03:06:04;;;;;;;3.03;0.88;;;15.90;99.90;;;;;;4877790;29;20021;-69
2023/09/02 03:08:31;;;;;;;1.70;0.90;;;15.80;99.90;;;;;;4861092;29;20569;-69
2023/09/02 03:11:02;;;;;;;0.50;0.50;;;15.50;99.90;;;;;;4860261;29;20144;-69
2023/09/02 03:13:29;;;;;;;0.85;0.50;;;15.60;99.90;;;;;;4869659;29;20335;-69
2023/09/02 03:15:55;;;;;;;8.20;1.08;;;15.50;99.90;;;;;;4860496;29;20639;-68
2023/09/02 03:18:24;;;;;;;1.20;0.73;;;15.60;99.90;;;;;;4877413;29;20041;-68
2023/09/02 03:20:50;;;;;;;1.35;0.52;;;15.60;99.90;;;;;;4867871;29;20120;-68
2023/09/02 03:23:15;;;;;;;0.60;0.60;;;15.40;99.90;;;;;;4861066;29;20112;-68
2023/09/02 03:25:41;;;;;;;0.73;0.50;;;15.50;99.90;;;;;;4863318;29;20379;-68
2023/09/02 03:28:07;;;;;;;3.28;1.58;;;15.50;99.90;;;;;;4864428;29;20037;-69
2023/09/02 03:30:33;;;;;;;0.80;0.60;;;15.60;99.90;;;;;;4859654;29;20382;-69
2023/09/02 03:32:59;;;;;;;1.65;0.63;;;15.50;99.90;;;;;;4875219;29;20033;-69
2023/09/02 03:35:25;;;;;;;1.60;0.90;;;15.50;99.90;;;;;;4863200;29;20026;-68
2023/09/02 03:37:51;;;;;;;3.47;0.70;;;15.40;99.90;;;;;;4876045;29;20493;-68
2023/09/02 03:40:18;;;;;;;1.05;0.60;;;15.40;99.90;;;;;;4867154;29;20030;-69
2023/09/02 03:42:44;;;;;;;3.30;1.25;;;15.40;99.90;;;;;;4872969;29;20037;-68
2023/09/02 03:45:10;;;;;;;1.80;0.90;;;15.40;99.90;;;;;;4874169;29;20032;-68
2023/09/02 03:47:36;;;;;;;2.22;1.20;;;15.50;99.90;;;;;;4857370;29;20037;-68
2023/09/02 03:50:06;;;;;;;2.15;1.13;;;15.50;99.90;;;;;;4857995;29;20024;-68
2023/09/02 03:52:32;;;;;;;2.25;0.95;;;15.50;99.90;;;;;;4862302;29;20040;-68
2023/09/02 03:54:58;;;;;;;2.28;1.10;;;15.50;99.90;;;;;;4871574;29;20021;-68
2023/09/02 03:57:24;;;;;;;3.13;1.20;;;15.60;99.90;;;;;;4872696;29;20049;-68
2023/09/02 03:59:50;;;;;;;2.88;0.95;;;15.70;99.90;;;;;;4866688;29;20025;-68
2023/09/02 04:02:16;;;;;;;3.45;1.13;;;15.70;99.90;;;;;;4869055;29;20545;-68
2023/09/02 04:04:42;;;;;;;1.23;0.75;;;15.60;99.90;;;;;;4861282;29;20040;-68
2023/09/02 04:07:07;;;;;;;2.83;0.93;;;15.60;99.90;;;;;;4868009;29;20139;-68
2023/09/02 04:09:34;;;;;;;1.35;0.85;;;15.60;99.90;;;;;;4857645;29;20057;-68
2023/09/02 04:12:00;;;;;;;0.93;0.57;;;15.70;99.90;;;;;;4868280;29;20032;-67
2023/09/02 04:14:26;;;;;;;1.63;0.82;;;15.70;99.90;;;;;;4862918;29;20550;-68
2023/09/02 04:16:55;;;;;;;2.03;0.90;;;15.70;99.90;;;;;;4864861;29;20389;-68
2023/09/02 04:19:22;;;;;;;5.85;0.77;;;15.70;99.90;;;;;;4862695;29;20359;-68
2023/09/02 04:21:49;;;;;;;0.60;0.57;;;15.80;99.90;;;;;;4861995;29;20036;-68
2023/09/02 04:24:15;;;;;;;4.47;1.23;;;15.80;99.90;;;;;;4858993;29;20116;-68
2023/09/02 04:26:40;;;;;;;1.27;0.93;;;15.80;99.90;;;;;;4859621;29;20127;-68
2023/09/02 04:29:06;;;;;;;6.07;0.95;;;15.80;99.90;;;;;;4859218;29;20041;-68
2023/09/02 04:31:32;;;;;;;1.92;0.70;;;15.60;99.90;;;;;;4870112;29;20033;-68
2023/09/02 04:33:57;;;;;;;1.10;0.80;;;15.60;99.90;;;;;;4865825;29;20462;-68
2023/09/02 04:36:23;;;;;;;1.02;0.63;;;15.50;99.90;;;;;;4860571;29;20060;-68
2023/09/02 04:38:51;;;;;;;2.25;1.38;;;15.50;99.90;;;;;;4858937;29;20462;-69
2023/09/02 04:41:17;;;;;;;2.75;0.90;;;15.50;99.90;;;;;;4863009;29;20138;-69
2023/09/02 04:43:43;;;;;;;2.33;1.00;;;15.30;99.90;;;;;;4858284;29;20028;-69
2023/09/02 04:46:09;;;;;;;1.60;1.00;;;15.20;99.90;;;;;;4860064;29;20029;-69
2023/09/02 04:48:35;;;;;;;2.88;0.98;;;15.10;99.90;;;;;;4851900;29;20529;-69
2023/09/02 04:51:03;;;;;;;2.72;0.80;;;15.20;99.90;;;;;;4862721;29;20029;-68
2023/09/02 04:53:29;;;;;;;1.05;0.75;;;15.40;99.90;;;;;;4857886;29;20025;-69
2023/09/02 04:55:55;;;;;;;2.08;0.85;;;15.50;99.90;;;;;;4866310;29;20129;-68
2023/09/02 04:58:22;;;;;;;1.02;0.60;;;15.40;99.90;;;;;;4869381;29;20062;-68
2023/09/02 05:00:49;;;;;;;1.23;0.82;;;15.50;99.90;;;;;;4873987;29;20029;-68
2023/09/02 05:03:15;;;;;;;2.17;1.10;;;15.50;99.90;;;;;;4874324;29;20060;-68
2023/09/02 05:05:41;;;;;;;1.13;0.55;;;15.60;99.90;;;;;;4865689;29;20493;-68
2023/09/02 05:08:06;;;;;;;1.10;0.75;;;15.60;99.90;;;;;;4863814;29;20637;-70
2023/09/02 05:10:32;;;;;;;1.33;0.70;;;15.60;99.90;;;;;;4867381;29;20040;-71
2023/09/02 05:12:58;;;;;;;2.03;0.90;;;15.70;99.90;;;;;;4869446;29;20037;-70
2023/09/02 05:15:24;;;;;;;3.20;1.42;;;15.80;99.90;;;;;;4860131;29;20459;-68
2023/09/02 05:17:51;;;;;;;3.15;0.90;;;15.80;99.90;;;;;;4865980;29;20033;-69
2023/09/02 05:20:16;;;;;;;1.10;0.65;;;15.90;99.90;;;;;;4865193;29;20037;-70
2023/09/02 05:22:42;;;;;;;1.23;0.65;;;15.90;99.90;;;;;;4860314;29;20042;-71
2023/09/02 05:25:08;;;;;;;1.33;0.75;;;16.00;99.90;;;;;;4868128;29;20478;-70
2023/09/02 05:27:36;;;;;;;0.60;0.50;;;16.00;99.90;;;;;;4855875;29;20029;-70
2023/09/02 05:30:03;;;;;;;1.45;0.82;;;16.00;99.90;;;;;;4860763;29;20076;-70
2023/09/02 05:32:29;;;;;;;1.80;0.98;;;16.00;99.90;;;;;;4866101;29;20037;-71
2023/09/02 05:34:55;;;;;;;3.00;1.00;;;16.00;99.90;;;;;;4869441;29;20082;-70
2023/09/02 05:37:21;;;;;;;2.08;1.30;;;16.00;99.90;;;;;;4864126;29;20048;-70
2023/09/02 05:39:46;;;;;;;5.25;2.92;;;16.00;99.90;;;;;;4869421;29;20037;-70
2023/09/02 05:42:12;;;;;;;7.03;3.47;;;16.00;99.90;;;;;;4864912;29;20375;-70
2023/09/02 05:44:38;;;;;;;3.28;1.65;;;16.10;99.90;;;;;;4863851;29;20471;-70
2023/09/02 05:47:04;;;;;;;6.45;2.50;;;16.10;99.90;;;;;;4870987;29;20033;-71
2023/09/02 05:49:30;;;;;;;10.13;2.28;;;16.20;99.90;;;;;;4868122;29;20025;-70
2023/09/02 05:51:55;;;;;;;2.92;0.75;;;16.20;99.90;;;;;;4871660;29;20044;-70
2023/09/02 05:54:21;;;;;;;2.15;1.00;;;16.30;99.90;;;;;;4873579;29;20440;-71
2023/09/02 05:56:48;;;;;;;6.57;1.10;;;16.40;99.90;;;;;;4868412;29;20044;-68
2023/09/02 05:59:13;;;;;;;2.25;0.95;;;16.40;99.90;;;;;;4868191;29;20095;-71
2023/09/02 06:01:39;;;;;;;1.25;0.82;;;16.50;99.90;;;;;;4874763;29;20057;-69
2023/09/02 06:04:05;;;;;;;1.02;0.50;;;16.50;99.90;;;;;;4879143;29;20029;-70
2023/09/02 06:06:31;;;;;;;3.35;0.77;;;16.60;99.90;;;;;;4879174;29;20044;-69
2023/09/02 06:08:57;;;;;;;0.90;0.50;;;16.70;99.90;;;;;;4871763;29;20021;-69
2023/09/02 06:11:22;;;;;;;1.58;0.88;;;16.80;99.90;;;;;;4847488;29;20043;-69
2023/09/02 06:13:48;;;;;;;1.15;0.68;;;16.90;99.90;;;;;;4882362;29;20039;-69
2023/09/02 06:16:14;;;;;;;0.93;0.50;;;16.90;99.90;;;;;;4877554;29;20029;-69
2023/09/02 06:18:40;;;;;;;0.75;0.47;;;17.00;99.90;;;;;;4861707;29;20044;-69
2023/09/02 06:21:13;;;;;;;8.05;1.15;;;17.00;99.90;;;;;;4878374;29;20064;-69
2023/09/02 06:23:44;;;;;;;1.92;1.13;;;16.80;99.90;;;;;;4879369;29;20043;-68
2023/09/02 06:26:11;;;;;;;2.20;1.02;;;16.90;99.90;;;;;;4878154;29;20025;-69
2023/09/02 06:28:38;;;;;;;1.15;0.88;;;16.80;99.90;;;;;;4861260;29;20045;-69
2023/09/02 06:31:08;;;;;;;1.88;0.85;;;17.00;99.90;;;;;;4876763;29;20142;-70
2023/09/02 06:33:35;;;;;;;2.78;1.30;;;16.90;99.90;;;;;;4860782;29;20086;-70
2023/09/02 06:36:12;;;;;;;4.60;1.63;;;17.20;99.90;;;;;;4870439;29;20385;-71
2023/09/02 06:38:38;;;;;;;4.25;1.52;;;17.30;99.90;;;;;;4876822;29;20069;-69
2023/09/02 06:41:15;;;;;;;3.10;1.45;;;17.30;99.90;;;;;;4879253;29;20028;-69
2023/09/02 06:43:42;;;;;;;4.35;1.23;;;17.40;99.90;;;;;;4881211;29;20037;-70
2023/09/02 06:46:17;;;;;;;2.45;1.38;;;17.50;99.90;;;;;;4855481;29;20029;-70
2023/09/02 06:48:46;;;;;;;3.45;1.60;;;17.60;99.90;;;;;;4884486;29;20433;-70
2023/09/02 06:51:13;;;;;;;5.47;1.27;;;17.60;99.90;;;;;;4876698;29;20112;-70
2023/09/02 06:53:43;;;;;;;2.03;1.10;;;17.50;99.90;;;;;;4878248;29;20401;-70
2023/09/02 06:56:13;;;;;;;2.40;1.13;;;17.60;99.90;;;;;;4875769;29;20374;-69
2023/09/02 06:58:41;;;;;;;5.28;1.20;;;17.30;99.90;;;;;;4860345;29;20044;-70
2023/09/02 07:01:14;;;;;;;2.17;1.20;;;17.50;99.90;;;;;;4877487;29;20041;-70
2023/09/02 07:03:39;;;;;;;2.95;1.20;;;17.50;99.90;;;;;;4873076;29;20487;-70
2023/09/02 07:06:06;;;;;;;2.50;1.13;;;17.60;99.90;;;;;;4873867;29;20120;-70
2023/09/02 07:08:32;;;;;;;2.20;1.13;;;17.70;99.90;;;;;;4858966;29;20435;-70
2023/09/02 07:10:58;;;;;;;2.78;1.10;;;17.70;99.90;;;;;;4876303;29;20036;-69
2023/09/02 07:13:24;;;;;;;2.03;1.05;;;17.90;99.90;;;;;;4878069;29;20040;-69
2023/09/02 07:15:59;;;;;;;1.85;0.98;;;18.00;99.90;;;;;;4876154;29;20024;-69
2023/09/02 07:18:25;;;;;;;2.35;0.98;;;18.10;99.90;;;;;;4853405;29;20119;-69
2023/09/02 07:20:51;;;;;;;2.67;1.23;;;18.10;99.90;;;;;;4877165;29;20115;-69
2023/09/02 07:23:17;;;;;;;2.05;0.80;;;18.20;99.90;;;;;;4876689;29;20328;-70
2023/09/02 07:25:42;;;;;;;2.47;1.00;;;18.20;99.90;;;;;;4877534;29;20468;-70
2023/09/02 07:28:08;;;;;;;2.17;1.15;;;18.30;99.90;;;;;;4876547;29;20174;-69
2023/09/02 07:30:38;;;;;;;1.77;0.93;;;18.30;99.90;;;;;;4877490;29;20037;-70
2023/09/02 07:33:04;;;;;;;1.70;0.88;;;18.30;99.90;;;;;;4876064;29;20569;-70
2023/09/02 07:35:35;;;;;;;2.17;1.00;;;18.40;99.90;;;;;;4878222;29;20044;-70
2023/09/02 07:38:00;;;;;;;;;;;18.50;99.90;;;;;;4877615;29;20040;-70
2023/09/02 07:40:26;;;;;;;2.35;1.13;;;18.60;99.90;;;;;;4877947;29;19916;-71
2023/09/02 07:42:52;;;;;;;1.55;0.88;;;18.70;99.90;;;;;;4873478;29;20041;-72
2023/09/02 07:45:17;;;;;;;1.40;0.80;;;18.80;99.90;;;;;;4877868;29;20035;-72
2023/09/02 07:47:43;;;;;;;2.65;1.08;;;18.80;99.90;;;;;;4876818;29;20060;-72
2023/09/02 07:50:09;;;;;;;1.92;1.23;;;18.90;99.90;;;;;;4875582;29;20032;-72
2023/09/02 07:52:35;;;;;;;4.72;2.47;;;19.10;99.90;;;;;;4876733;29;20137;-72
2023/09/02 07:55:00;;;;;;;2.75;1.30;;;19.10;99.90;;;;;;4861085;29;20041;-71
2023/09/02 07:57:26;;;;;;;1.77;0.60;;;19.20;99.90;;;;;;4877108;29;20044;-71
2023/09/02 07:59:52;;;;;;;6.93;3.65;;;19.20;99.90;;;;;;4869676;29;20285;-72
2023/09/02 08:02:17;;;;;;;1.67;1.00;;;19.20;99.90;;;;;;4880481;29;20104;-71
2023/09/02 08:04:43;;;;;;;1.27;1.13;;;19.40;99.90;;;;;;4878386;29;20065;-71
2023/09/02 08:07:09;;;;;;;2.05;0.98;;;19.50;99.90;;;;;;4876479;29;20037;-71
2023/09/02 08:09:34;;;;;;;2.67;0.98;;;19.60;99.90;;;;;;4857270;29;20489;-71
2023/09/02 08:12:00;;;;;;;3.08;0.75;;;19.60;99.90;;;;;;4875279;29;20036;-72
2023/09/02 08:14:26;;;;;;;1.05;0.40;;;19.60;99.90;;;;;;4865917;29;20116;-71
2023/09/02 08:16:52;;;;;;;2.42;0.68;;;19.80;99.90;;;;;;4882868;29;20044;-71
2023/09/02 08:19:17;;;;;;;1.15;0.63;;;19.80;99.90;;;;;;4877548;29;20037;-71
2023/09/02 08:21:43;;;;;;;1.20;0.65;;;19.90;99.90;;;;;;4875776;29;20052;-71
2023/09/02 08:24:09;;;;;;;1.33;0.60;;;19.90;99.90;;;;;;4876104;29;20112;-71
2023/09/02 08:26:34;;;;;;;1.48;0.50;;;20.00;99.90;;;;;;4876263;29;20037;-71
2023/09/02 08:29:00;;;;;;;1.33;0.68;;;19.90;99.90;;;;;;4875808;29;20029;-71
2023/09/02 08:31:26;;;;;;;1.55;0.73;;;19.90;99.90;;;;;;4876443;29;20474;-71
2023/09/02 08:33:51;;;;;;;3.67;0.70;;;19.90;99.90;;;;;;4871106;29;20060;-71
2023/09/02 08:36:17;;;;;;;0.63;0.40;;;19.90;99.90;;;;;;4869833;29;20032;-71
2023/09/02 08:38:43;;;;;;;1.40;0.57;;;20.00;99.90;;;;;;4869064;29;20116;-71
2023/09/02 08:41:23;;;;;;;0.77;0.60;;;20.10;99.90;;;;;;4865191;29;20089;-71
2023/09/02 08:43:56;;;;;;;1.05;0.50;;;20.20;99.90;;;;;;4859651;29;20389;-71
2023/09/02 08:46:26;;;;;;;0.88;0.50;;;20.40;99.90;;;;;;4874943;29;20449;-71
2023/09/02 08:48:55;;;;;;;0.70;0.40;;;20.50;99.90;;;;;;4875864;29;20068;-71
2023/09/02 08:51:23;;;;;;;1.00;0.40;;;20.60;99.90;;;;;;4874700;29;20513;-63
2023/09/02 08:53:53;;;;;;;1.98;0.45;;;20.80;99.90;;;;;;4874954;29;20041;-62
2023/09/02 08:56:20;;;;;;;1.10;0.60;;;20.90;99.90;;;;;;4859844;29;20085;-62
2023/09/02 08:58:46;;;;;;;0.63;0.40;;;21.00;99.90;;;;;;4858055;29;20025;-61
2023/09/02 09:01:18;;;;;;;1.38;0.65;;;21.30;99.90;;;;;;4873957;29;20077;-62
2023/09/02 09:03:49;;;;;;;0.98;0.43;;;21.50;99.90;;;;;;4885482;29;20045;-62
2023/09/02 09:06:18;;;;;;;19.27;2.08;;;21.60;99.90;;;;;;4879485;29;20061;-63
2023/09/02 09:08:46;;;;;;;4.72;1.60;;;21.70;99.90;;;;;;4864121;29;20037;-63
2023/09/02 09:11:18;;;;;;;0.85;0.60;;;21.70;99.90;;;;;;4862468;29;20041;-62
2023/09/02 09:13:46;;;;;;;1.27;0.60;;;21.60;99.90;;;;;;4879134;29;20029;-62
2023/09/02 09:16:31;;;;;;;1.60;0.63;;;21.80;99.90;;;;;;4876095;29;20430;-62
2023/09/02 09:18:57;;;;;;;0.80;0.47;;;21.80;99.90;;;;;;4869538;29;20025;-62
2023/09/02 09:21:23;;;;;;;1.15;0.70;;;21.90;99.90;;;;;;4877433;29;20089;-62
2023/09/02 09:23:49;;;;;;;1.25;0.68;;;22.00;99.90;;;;;;4880141;29;20036;-63
2023/09/02 09:26:16;;;;;;;1.75;0.45;;;22.20;99.90;;;;;;4879354;29;20041;-62
2023/09/02 09:28:53;;;;;;;1.10;0.50;;;22.20;99.90;;;;;;4874341;29;20037;-62
2023/09/02 09:31:20;;;;;;;3.95;0.73;;;22.20;99.90;;;;;;4862221;29;20064;-62
2023/09/02 09:33:58;;;;;;;0.85;0.50;;;22.40;99.90;;;;;;4851933;29;20128;-62
2023/09/02 09:36:29;;;;;;;2.53;0.50;;;22.50;99.90;;;;;;4864293;29;20025;-62
2023/09/02 09:38:55;;;;;;;;;;;22.30;99.90;;;;;;4858200;29;20062;-62
2023/09/02 09:41:22;;;;;;;0.65;0.47;;;22.50;99.90;;;;;;4879351;29;19995;-63
2023/09/02 09:44:11;;;;;;;0.75;0.50;;;22.70;99.90;;;;;;4877188;29;20076;-63
2023/09/02 09:46:53;;;;;;;0.65;0.40;;;22.80;99.90;;;;;;4871467;29;20405;-62
2023/09/02 09:49:26;;;;;;;0.88;0.43;;;22.90;99.90;;;;;;4882347;29;20497;-63
2023/09/02 09:52:01;;;;;;;2.33;0.63;;;23.10;99.90;;;;;;4882380;29;20044;-63
2023/09/02 09:54:45;;;;;;;3.40;0.73;;;23.20;99.90;;;;;;4879264;29;20033;-63
2023/09/02 09:57:29;;;;;;;0.95;0.57;;;23.30;99.90;;;;;;4878966;29;20068;-62
2023/09/02 09:59:56;;;;;;;0.65;0.55;;;23.50;99.90;;;;;;4872083;29;20065;-62
2023/09/02 10:02:22;;;;;;;2.03;0.50;;;23.90;99.90;;;;;;4881655;29;20525;-62
2023/09/02 10:04:54;;;;;;;2.95;0.98;;;24.00;99.90;;;;;;4879972;29;20041;-63
2023/09/02 10:07:31;;;;;;;0.68;0.57;;;24.10;99.90;;;;;;4878410;29;20070;-63
2023/09/02 10:10:01;;;;;;;1.13;0.52;;;24.10;99.90;;;;;;4872305;29;20081;-62
2023/09/02 10:12:33;;;;;;;26.93;11.33;;;24.20;99.90;;;;;;4861087;29;20029;-63
2023/09/02 10:15:00;;;;;;;6.55;3.53;;;24.40;99.90;;;;;;4873832;29;20353;-63
2023/09/02 10:17:27;;;;;;;2.15;0.85;;;24.50;99.90;;;;;;4861726;29;20048;-63
2023/09/02 10:19:53;;;;;;;0.77;0.50;;;24.40;99.90;;;;;;4885551;29;20864;-63
2023/09/02 10:22:22;;;;;;;2.78;0.77;;;24.30;99.90;;;;;;4879209;29;20068;-63
2023/09/02 10:25:19;;;;;;;1.58;0.60;;;24.60;99.90;;;;;;4879263;29;20037;-63
2023/09/02 10:27:53;;;;;;;0.45;0.30;;;24.40;99.90;;;;;;4861568;29;20065;-63
2023/09/02 10:30:29;;;;;;;0.30;0.30;;;24.40;99.90;;;;;;4880101;29;20397;-63
2023/09/02 10:33:10;;;;;;;0.73;0.47;;;24.70;99.90;;;;;;4862939;29;20029;-63
2023/09/02 10:35:42;;;;;;;0.75;0.57;;;25.00;99.90;;;;;;4863483;29;20101;-63
2023/09/02 10:38:15;;;;;;;0.22;0.20;;;24.80;99.90;;;;;;4862307;29;20037;-63
2023/09/02 10:40:48;;;;;;;0.52;0.38;;;24.90;99.90;;;;;;4883934;29;20041;-63
2023/09/02 10:43:14;;;;;;;0.90;0.50;;;25.10;99.90;;;;;;4858949;29;20100;-63
2023/09/02 10:45:40;;;;;;;1.08;0.45;;;25.50;99.90;;;;;;4862386;29;20470;-63
2023/09/02 10:48:06;;;;;;;0.40;0.30;;;25.60;99.90;;;;;;4878386;29;20093;-63
2023/09/02 10:50:33;;;;;;;2.88;0.38;;;25.40;99.90;;;;;;4859250;29;20033;-62
2023/09/02 10:52:59;;;;;;;1.70;0.70;;;25.30;99.90;;;;;;4859243;29;20335;-62
2023/09/02 10:55:25;;;;;;;2.60;1.02;;;25.60;99.90;;;;;;4876992;29;20089;-62
2023/09/02 10:57:54;;;;;;;1.33;0.60;;;25.70;99.90;;;;;;4871359;29;20032;-62
2023/09/02 11:00:24;;;;;;;20.83;8.38;;;25.50;99.90;;;;;;4870983;29;20765;-63
2023/09/02 11:02:53;;;;;;;1.50;0.93;;;25.80;99.90;;;;;;4860859;29;20083;-63
2023/09/02 11:05:21;;;;;;;1.98;1.30;;;25.80;99.90;;;;;;4861526;29;20178;-62
2023/09/02 11:07:49;;;;;;;0.73;0.38;;;26.00;99.90;;;;;;4877626;29;20116;-62
2023/09/02 11:10:16;;;;;;;0.55;0.40;;;25.70;99.90;;;;;;4878513;29;20025;-62
2023/09/02 11:13:00;;;;;;;0.77;0.47;;;26.00;99.90;;;;;;4861309;29;20033;-69
2023/09/02 11:15:29;;;;;;;1.33;0.52;;;26.10;99.90;;;;;;4876355;29;20116;-70
2023/09/02 11:17:56;;;;;;;1.55;0.70;;;26.40;99.90;;;;;;4861707;29;20093;-70
2023/09/02 11:20:25;;;;;;;1.60;0.40;;;26.60;99.90;;;;;;4861488;29;20059;-72
2023/09/02 11:23:05;;;;;;;1.17;0.63;;;26.80;99.90;;;;;;4877506;29;20041;-70
2023/09/02 11:25:41;;;;;;;6.75;2.40;;;26.90;99.90;;;;;;4877752;29;20401;-70
2023/09/02 11:28:13;;;;;;;1.15;0.63;;;27.00;99.90;;;;;;4860851;29;20030;-71
2023/09/02 11:30:39;;;;;;;1.05;0.60;;;27.20;99.90;;;;;;4872643;29;20109;-71
2023/09/02 11:33:09;;;;;;;0.68;0.28;;;27.00;99.90;;;;;;4842890;29;20502;-72
2023/09/02 11:35:37;;;;;;;5.60;0.60;;;27.00;99.90;;;;;;4851344;29;20045;-71
2023/09/02 11:38:18;;;;;;;1.35;0.47;;;26.90;99.90;;;;;;4861933;29;20029;-72
2023/09/02 11:40:44;;;;;;;0.95;0.40;;;26.90;99.90;;;;;;4870031;29;20486;-72
2023/09/02 11:43:09;;;;;;;0.35;0.28;;;26.40;99.90;;;;;;4861503;29;20044;-70
2023/09/02 11:45:38;;;;;;;1.08;0.43;;;26.20;99.90;;;;;;4869369;29;20056;-70
2023/09/02 11:48:06;;;;;;;2.03;0.60;;;26.50;99.90;;;;;;4861235;29;20029;-70
2023/09/02 11:50:32;;;;;;;2.17;0.50;;;26.80;99.90;;;;;;4869029;29;20368;-70
2023/09/02 11:52:58;;;;;;;1.85;0.85;;;26.70;99.90;;;;;;4877861;29;20040;-70
2023/09/02 11:55:25;;;;;;;1.25;0.70;;;27.00;99.90;;;;;;4860265;29;20166;-70
2023/09/02 11:57:52;;;;;;;2.65;0.65;;;27.10;99.90;;;;;;4858311;29;20112;-70
2023/09/02 12:00:25;;;;;;;1.75;0.50;;;27.80;99.90;;;;;;4872890;29;20492;-70
2023/09/02 12:02:55;;;;;;;1.20;0.60;;;28.20;99.90;;;;;;4860941;29;20503;-70
2023/09/02 12:05:20;;;;;;;2.43;0.73;;;28.70;99.90;;;;;;4860257;29;20454;-71
2023/09/02 12:07:47;;;;;;;1.65;0.93;;;28.90;99.90;;;;;;4859155;29;20040;-71
2023/09/02 12:10:16;;;;;;;0.98;0.70;;;28.30;99.90;;;;;;4856706;29;20056;-71
2023/09/02 12:12:49;;;;;;;2.28;0.60;;;28.90;99.90;;;;;;4854196;29;20494;-71
2023/09/02 12:15:19;;;;;;;1.60;0.80;;;29.00;98.30;;;;;;4849012;29;20052;-71
2023/09/02 12:17:47;;;;;;;1.10;0.47;;;28.80;99.80;;;;;;4857902;29;20033;-71
2023/09/02 12:20:15;;;;;;;0.60;0.40;;;28.60;99.90;;;;;;4851359;29;20029;-71
2023/09/02 12:22:43;;;;;;;1.98;0.60;;;29.30;99.60;;;;;;4860794;29;20051;-71
2023/09/02 12:25:17;;;;;;;1.20;0.50;;;29.10;99.90;;;;;;4859968;29;20048;-70
2023/09/02 12:27:44;;;;;;;2.53;0.75;;;28.90;99.90;;;;;;4869712;29;20108;-71
2023/09/02 12:30:12;;;;;;;1.75;0.50;;;29.40;99.90;;;;;;4863161;29;20033;-71
2023/09/02 12:32:38;;;;;;;1.25;0.50;;;28.90;99.90;;;;;;4853227;29;20121;-71
2023/09/02 12:35:13;;;;;;;1.40;0.50;;;29.50;99.90;;;;;;4877855;29;20366;-71
2023/09/02 12:37:39;;;;;;;0.75;0.40;;;29.90;98.70;;;;;;4876081;29;20361;-71
2023/09/02 12:40:15;;;;;;;1.15;0.28;;;30.90;96.60;;;;;;4850521;29;20037;-71
2023/09/02 12:42:41;;;;;;;0.77;0.40;;;29.80;96.70;;;;;;4850961;29;20402;-70
2023/09/02 12:45:09;;;;;;;1.00;0.50;;;29.60;97.90;;;;;;4876208;29;20112;-71
2023/09/02 12:47:38;;;;;;;0.50;0.32;;;30.30;96.60;;;;;;4860242;29;20033;-71
2023/09/02 12:50:05;;;;;;;7.87;4.63;;;30.70;95.80;;;;;;4871669;29;20034;-71
2023/09/02 12:52:33;;;;;;;4.70;1.65;;;30.90;94.50;;;;;;4866231;29;20438;-70